sensor_id;sensor_type;location;lat;lon;timestamp;P1;durP1;ratioP1;P2;durP2;ratioP2
81170;SDS011;70644;44.818;20.478;2023-06-14T00:01:38;6.50;;;5.43;;
81170;SDS011;70644;44.818;20.478;2023-06-14T00:04:04;5.40;;;4.80;;
81170;SDS011;70644;44.818;20.478;2023-06-14T00:06:34;5.72;;;5.13;;
81170;SDS011;70644;44.818;20.478;2023-06-14T00:09:00;6.22;;;5.40;;
81170;SDS011;70644;44.818;20.478;2023-06-14T00:11:26;5.88;;;4.60;;
81170;SDS011;70644;44.818;20.478;2023-06-14T00:13:53;6.70;;;4.88;;
81170;SDS011;70644;44.818;20.478;2023-06-14T00:16:19;6.82;;;5.40;;
81170;SDS011;70644;44.818;20.478;2023-06-14T00:18:46;6.25;;;4.85;;
81170;SDS011;70644;44.818;20.478;2023-06-14T00:21:12;5.97;;;5.00;;
81170;SDS011;70644;44.818;20.478;2023-06-14T00:23:38;6.53;;;4.82;;
81170;SDS011;70644;44.818;20.478;2023-06-14T00:26:04;6.47;;;4.72;;
81170;SDS011;70644;44.818;20.478;2023-06-14T00:28:30;5.60;;;4.78;;
81170;SDS011;70644;44.818;20.478;2023-06-14T00:30:56;6.25;;;4.60;;
81170;SDS011;70644;44.818;20.478;2023-06-14T00:33:22;5.53;;;4.70;;
81170;SDS011;70644;44.818;20.478;2023-06-14T00:35:49;6.07;;;4.97;;
81170;SDS011;70644;44.818;20.478;2023-06-14T00:38:15;5.75;;;5.07;;
81170;SDS011;70644;44.818;20.478;2023-06-14T00:40:41;5.30;;;4.70;;
81170;SDS011;70644;44.818;20.478;2023-06-14T00:43:07;6.63;;;4.57;;
81170;SDS011;70644;44.818;20.478;2023-06-14T00:45:33;6.35;;;5.68;;
81170;SDS011;70644;44.818;20.478;2023-06-14T00:48:01;6.18;;;5.53;;
81170;SDS011;70644;44.818;20.478;2023-06-14T00:50:28;6.10;;;5.55;;
81170;SDS011;70644;44.818;20.478;2023-06-14T00:52:55;6.18;;;5.25;;
81170;SDS011;70644;44.818;20.478;2023-06-14T00:55:21;6.28;;;4.57;;
81170;SDS011;70644;44.818;20.478;2023-06-14T00:57:47;5.95;;;4.90;;
81170;SDS011;70644;44.818;20.478;2023-06-14T01:00:14;6.93;;;4.80;;
81170;SDS011;70644;44.818;20.478;2023-06-14T01:02:40;5.70;;;4.97;;
81170;SDS011;70644;44.818;20.478;2023-06-14T01:05:07;7.22;;;5.82;;
81170;SDS011;70644;44.818;20.478;2023-06-14T01:12:53;5.97;;;5.38;;
81170;SDS011;70644;44.818;20.478;2023-06-14T01:15:21;6.32;;;5.72;;
81170;SDS011;70644;44.818;20.478;2023-06-14T01:17:51;6.00;;;5.35;;
81170;SDS011;70644;44.818;20.478;2023-06-14T01:20:19;5.00;;;4.30;;
81170;SDS011;70644;44.818;20.478;2023-06-14T01:22:52;5.00;;;4.43;;
81170;SDS011;70644;44.818;20.478;2023-06-14T01:25:20;5.88;;;4.60;;
81170;SDS011;70644;44.818;20.478;2023-06-14T01:27:53;5.00;;;4.38;;
81170;SDS011;70644;44.818;20.478;2023-06-14T01:30:20;5.40;;;4.38;;
81170;SDS011;70644;44.818;20.478;2023-06-14T01:32:47;6.53;;;5.45;;
81170;SDS011;70644;44.818;20.478;2023-06-14T01:35:13;5.68;;;5.10;;
81170;SDS011;70644;44.818;20.478;2023-06-14T01:37:40;5.60;;;4.55;;
81170;SDS011;70644;44.818;20.478;2023-06-14T01:40:07;5.60;;;4.50;;
81170;SDS011;70644;44.818;20.478;2023-06-14T01:42:33;5.82;;;5.07;;
81170;SDS011;70644;44.818;20.478;2023-06-14T01:45:02;6.90;;;4.88;;
81170;SDS011;70644;44.818;20.478;2023-06-14T01:47:28;7.22;;;4.63;;
81170;SDS011;70644;44.818;20.478;2023-06-14T01:49:54;5.70;;;5.18;;
81170;SDS011;70644;44.818;20.478;2023-06-14T01:52:20;5.28;;;4.30;;
81170;SDS011;70644;44.818;20.478;2023-06-14T01:54:47;5.68;;;4.70;;
81170;SDS011;70644;44.818;20.478;2023-06-14T01:57:14;6.10;;;5.60;;
81170;SDS011;70644;44.818;20.478;2023-06-14T01:59:42;5.72;;;5.13;;
81170;SDS011;70644;44.818;20.478;2023-06-14T02:02:13;5.78;;;5.18;;
81170;SDS011;70644;44.818;20.478;2023-06-14T02:04:39;5.82;;;4.30;;
81170;SDS011;70644;44.818;20.478;2023-06-14T02:07:05;5.03;;;4.03;;
81170;SDS011;70644;44.818;20.478;2023-06-14T02:09:31;5.18;;;4.40;;
81170;SDS011;70644;44.818;20.478;2023-06-14T02:11:57;6.20;;;5.45;;
81170;SDS011;70644;44.818;20.478;2023-06-14T02:14:23;5.65;;;5.10;;
81170;SDS011;70644;44.818;20.478;2023-06-14T02:16:50;5.22;;;4.68;;
81170;SDS011;70644;44.818;20.478;2023-06-14T02:19:16;4.45;;;3.85;;
81170;SDS011;70644;44.818;20.478;2023-06-14T02:21:42;5.13;;;4.22;;
81170;SDS011;70644;44.818;20.478;2023-06-14T02:24:08;6.10;;;4.10;;
81170;SDS011;70644;44.818;20.478;2023-06-14T02:26:35;5.47;;;4.93;;
81170;SDS011;70644;44.818;20.478;2023-06-14T02:29:03;5.30;;;4.80;;
81170;SDS011;70644;44.818;20.478;2023-06-14T02:31:30;5.55;;;3.95;;
81170;SDS011;70644;44.818;20.478;2023-06-14T02:33:59;5.93;;;3.95;;
81170;SDS011;70644;44.818;20.478;2023-06-14T02:36:25;5.55;;;4.18;;
81170;SDS011;70644;44.818;20.478;2023-06-14T02:38:52;4.55;;;3.63;;
81170;SDS011;70644;44.818;20.478;2023-06-14T02:41:19;5.13;;;4.35;;
81170;SDS011;70644;44.818;20.478;2023-06-14T02:43:45;4.90;;;3.97;;
81170;SDS011;70644;44.818;20.478;2023-06-14T02:46:12;5.72;;;4.68;;
81170;SDS011;70644;44.818;20.478;2023-06-14T02:48:38;4.95;;;3.90;;
81170;SDS011;70644;44.818;20.478;2023-06-14T02:51:05;4.50;;;4.00;;
81170;SDS011;70644;44.818;20.478;2023-06-14T02:53:31;5.57;;;4.47;;
81170;SDS011;70644;44.818;20.478;2023-06-14T02:55:57;5.47;;;3.90;;
81170;SDS011;70644;44.818;20.478;2023-06-14T02:58:23;5.28;;;4.78;;
81170;SDS011;70644;44.818;20.478;2023-06-14T03:00:50;4.85;;;4.10;;
81170;SDS011;70644;44.818;20.478;2023-06-14T03:03:19;4.65;;;4.03;;
81170;SDS011;70644;44.818;20.478;2023-06-14T03:05:46;5.85;;;4.82;;
81170;SDS011;70644;44.818;20.478;2023-06-14T03:08:14;5.50;;;4.15;;
81170;SDS011;70644;44.818;20.478;2023-06-14T03:10:52;5.18;;;4.68;;
81170;SDS011;70644;44.818;20.478;2023-06-14T03:13:18;4.88;;;3.72;;
81170;SDS011;70644;44.818;20.478;2023-06-14T03:15:47;5.85;;;3.80;;
81170;SDS011;70644;44.818;20.478;2023-06-14T03:18:16;4.60;;;3.53;;
81170;SDS011;70644;44.818;20.478;2023-06-14T03:20:42;5.00;;;4.50;;
81170;SDS011;70644;44.818;20.478;2023-06-14T03:23:10;4.30;;;3.78;;
81170;SDS011;70644;44.818;20.478;2023-06-14T03:25:36;5.35;;;4.85;;
81170;SDS011;70644;44.818;20.478;2023-06-14T03:28:06;5.18;;;4.68;;
81170;SDS011;70644;44.818;20.478;2023-06-14T03:30:32;4.93;;;4.05;;
81170;SDS011;70644;44.818;20.478;2023-06-14T03:32:58;5.18;;;4.65;;
81170;SDS011;70644;44.818;20.478;2023-06-14T03:35:28;4.97;;;4.35;;
81170;SDS011;70644;44.818;20.478;2023-06-14T03:37:54;5.05;;;4.25;;
81170;SDS011;70644;44.818;20.478;2023-06-14T03:40:21;4.78;;;4.30;;
81170;SDS011;70644;44.818;20.478;2023-06-14T03:42:47;4.30;;;3.60;;
81170;SDS011;70644;44.818;20.478;2023-06-14T03:45:13;4.65;;;3.72;;
81170;SDS011;70644;44.818;20.478;2023-06-14T03:47:39;5.05;;;4.55;;
81170;SDS011;70644;44.818;20.478;2023-06-14T03:50:05;4.38;;;3.67;;
81170;SDS011;70644;44.818;20.478;2023-06-14T03:52:31;5.57;;;3.72;;
81170;SDS011;70644;44.818;20.478;2023-06-14T03:54:58;5.45;;;4.15;;
81170;SDS011;70644;44.818;20.478;2023-06-14T03:57:25;4.40;;;3.75;;
81170;SDS011;70644;44.818;20.478;2023-06-14T03:59:51;4.68;;;4.18;;
81170;SDS011;70644;44.818;20.478;2023-06-14T04:02:17;5.93;;;4.88;;
81170;SDS011;70644;44.818;20.478;2023-06-14T04:04:44;4.35;;;3.67;;
81170;SDS011;70644;44.818;20.478;2023-06-14T04:07:11;4.97;;;3.90;;
81170;SDS011;70644;44.818;20.478;2023-06-14T04:09:37;5.25;;;4.75;;
81170;SDS011;70644;44.818;20.478;2023-06-14T04:12:04;4.68;;;4.20;;
81170;SDS011;70644;44.818;20.478;2023-06-14T04:14:30;4.35;;;3.63;;
81170;SDS011;70644;44.818;20.478;2023-06-14T04:16:58;5.53;;;4.50;;
81170;SDS011;70644;44.818;20.478;2023-06-14T04:19:24;5.45;;;4.95;;
81170;SDS011;70644;44.818;20.478;2023-06-14T04:21:50;5.35;;;4.68;;
81170;SDS011;70644;44.818;20.478;2023-06-14T04:24:16;5.50;;;4.05;;
81170;SDS011;70644;44.818;20.478;2023-06-14T04:26:43;5.07;;;3.80;;
81170;SDS011;70644;44.818;20.478;2023-06-14T04:29:18;5.20;;;4.47;;
81170;SDS011;70644;44.818;20.478;2023-06-14T04:31:45;5.57;;;4.30;;
81170;SDS011;70644;44.818;20.478;2023-06-14T04:34:12;4.65;;;3.88;;
81170;SDS011;70644;44.818;20.478;2023-06-14T04:36:42;5.68;;;3.88;;
81170;SDS011;70644;44.818;20.478;2023-06-14T04:39:17;5.07;;;4.20;;
81170;SDS011;70644;44.818;20.478;2023-06-14T04:41:43;4.93;;;4.43;;
81170;SDS011;70644;44.818;20.478;2023-06-14T04:44:09;5.28;;;4.68;;
81170;SDS011;70644;44.818;20.478;2023-06-14T04:46:36;5.22;;;4.43;;
81170;SDS011;70644;44.818;20.478;2023-06-14T04:49:18;4.85;;;4.35;;
81170;SDS011;70644;44.818;20.478;2023-06-14T04:51:45;5.38;;;3.53;;
81170;SDS011;70644;44.818;20.478;2023-06-14T04:54:12;5.18;;;4.40;;
81170;SDS011;70644;44.818;20.478;2023-06-14T04:56:39;4.65;;;3.70;;
81170;SDS011;70644;44.818;20.478;2023-06-14T04:59:05;6.00;;;4.00;;
81170;SDS011;70644;44.818;20.478;2023-06-14T05:01:31;4.57;;;3.60;;
81170;SDS011;70644;44.818;20.478;2023-06-14T05:03:58;4.50;;;3.78;;
81170;SDS011;70644;44.818;20.478;2023-06-14T05:06:24;5.20;;;4.70;;
81170;SDS011;70644;44.818;20.478;2023-06-14T05:08:51;4.88;;;3.63;;
81170;SDS011;70644;44.818;20.478;2023-06-14T05:11:17;5.32;;;4.35;;
81170;SDS011;70644;44.818;20.478;2023-06-14T05:13:43;5.30;;;3.70;;
81170;SDS011;70644;44.818;20.478;2023-06-14T05:16:10;6.05;;;4.22;;
81170;SDS011;70644;44.818;20.478;2023-06-14T05:18:36;4.60;;;3.60;;
81170;SDS011;70644;44.818;20.478;2023-06-14T05:21:03;4.70;;;3.67;;
81170;SDS011;70644;44.818;20.478;2023-06-14T05:23:30;5.18;;;3.50;;
81170;SDS011;70644;44.818;20.478;2023-06-14T05:25:56;6.38;;;4.65;;
81170;SDS011;70644;44.818;20.478;2023-06-14T05:28:23;5.18;;;4.32;;
81170;SDS011;70644;44.818;20.478;2023-06-14T05:30:49;4.93;;;4.20;;
81170;SDS011;70644;44.818;20.478;2023-06-14T05:33:15;5.25;;;4.53;;
81170;SDS011;70644;44.818;20.478;2023-06-14T05:35:41;4.65;;;3.60;;
81170;SDS011;70644;44.818;20.478;2023-06-14T05:38:08;4.63;;;4.10;;
81170;SDS011;70644;44.818;20.478;2023-06-14T05:40:34;5.38;;;4.40;;
81170;SDS011;70644;44.818;20.478;2023-06-14T05:43:00;5.25;;;3.65;;
81170;SDS011;70644;44.818;20.478;2023-06-14T05:45:26;4.78;;;3.50;;
81170;SDS011;70644;44.818;20.478;2023-06-14T05:47:52;4.07;;;3.20;;
81170;SDS011;70644;44.818;20.478;2023-06-14T05:50:20;4.38;;;3.38;;
81170;SDS011;70644;44.818;20.478;2023-06-14T05:52:46;4.30;;;3.50;;
81170;SDS011;70644;44.818;20.478;2023-06-14T05:55:12;4.90;;;3.78;;
81170;SDS011;70644;44.818;20.478;2023-06-14T05:57:38;5.55;;;3.65;;
81170;SDS011;70644;44.818;20.478;2023-06-14T06:00:05;4.20;;;3.00;;
81170;SDS011;70644;44.818;20.478;2023-06-14T06:02:35;4.60;;;3.50;;
81170;SDS011;70644;44.818;20.478;2023-06-14T06:05:01;4.82;;;3.30;;
81170;SDS011;70644;44.818;20.478;2023-06-14T06:07:28;4.68;;;3.38;;
81170;SDS011;70644;44.818;20.478;2023-06-14T06:09:54;4.43;;;3.72;;
81170;SDS011;70644;44.818;20.478;2023-06-14T06:12:20;4.57;;;3.55;;
81170;SDS011;70644;44.818;20.478;2023-06-14T06:14:46;5.05;;;3.83;;
81170;SDS011;70644;44.818;20.478;2023-06-14T06:17:12;4.13;;;3.25;;
81170;SDS011;70644;44.818;20.478;2023-06-14T06:19:39;4.53;;;3.40;;
81170;SDS011;70644;44.818;20.478;2023-06-14T06:22:05;4.00;;;3.17;;
81170;SDS011;70644;44.818;20.478;2023-06-14T06:24:31;4.60;;;4.20;;
81170;SDS011;70644;44.818;20.478;2023-06-14T06:26:57;4.30;;;3.60;;
81170;SDS011;70644;44.818;20.478;2023-06-14T06:29:23;4.78;;;3.20;;
81170;SDS011;70644;44.818;20.478;2023-06-14T06:31:51;4.35;;;3.20;;
81170;SDS011;70644;44.818;20.478;2023-06-14T06:34:18;4.60;;;2.95;;
81170;SDS011;70644;44.818;20.478;2023-06-14T06:36:44;4.05;;;3.35;;
81170;SDS011;70644;44.818;20.478;2023-06-14T06:39:10;3.83;;;3.10;;
81170;SDS011;70644;44.818;20.478;2023-06-14T06:41:39;4.40;;;3.38;;
81170;SDS011;70644;44.818;20.478;2023-06-14T06:44:05;4.00;;;3.30;;
81170;SDS011;70644;44.818;20.478;2023-06-14T06:46:32;4.97;;;3.63;;
81170;SDS011;70644;44.818;20.478;2023-06-14T06:49:00;4.85;;;3.70;;
81170;SDS011;70644;44.818;20.478;2023-06-14T06:51:26;6.95;;;3.88;;
81170;SDS011;70644;44.818;20.478;2023-06-14T06:53:52;5.38;;;3.58;;
81170;SDS011;70644;44.818;20.478;2023-06-14T06:56:19;4.70;;;3.08;;
81170;SDS011;70644;44.818;20.478;2023-06-14T06:58:46;5.22;;;3.75;;
81170;SDS011;70644;44.818;20.478;2023-06-14T07:01:12;4.35;;;3.47;;
81170;SDS011;70644;44.818;20.478;2023-06-14T07:03:38;4.55;;;3.78;;
81170;SDS011;70644;44.818;20.478;2023-06-14T07:06:04;4.57;;;3.17;;
81170;SDS011;70644;44.818;20.478;2023-06-14T07:08:30;3.65;;;3.10;;
81170;SDS011;70644;44.818;20.478;2023-06-14T07:10:57;4.82;;;3.83;;
81170;SDS011;70644;44.818;20.478;2023-06-14T07:13:23;7.65;;;3.63;;
81170;SDS011;70644;44.818;20.478;2023-06-14T07:15:49;5.35;;;3.42;;
81170;SDS011;70644;44.818;20.478;2023-06-14T07:18:18;6.18;;;3.35;;
81170;SDS011;70644;44.818;20.478;2023-06-14T07:20:44;5.75;;;3.95;;
81170;SDS011;70644;44.818;20.478;2023-06-14T07:23:12;5.95;;;3.22;;
81170;SDS011;70644;44.818;20.478;2023-06-14T07:25:38;4.43;;;3.22;;
81170;SDS011;70644;44.818;20.478;2023-06-14T07:28:04;4.40;;;3.47;;
81170;SDS011;70644;44.818;20.478;2023-06-14T07:30:30;5.15;;;3.30;;
81170;SDS011;70644;44.818;20.478;2023-06-14T07:32:56;4.72;;;3.20;;
81170;SDS011;70644;44.818;20.478;2023-06-14T07:35:23;4.57;;;3.00;;
81170;SDS011;70644;44.818;20.478;2023-06-14T07:37:50;6.63;;;3.30;;
81170;SDS011;70644;44.818;20.478;2023-06-14T07:40:16;7.97;;;3.17;;
81170;SDS011;70644;44.818;20.478;2023-06-14T07:42:42;5.47;;;3.22;;
81170;SDS011;70644;44.818;20.478;2023-06-14T07:45:08;5.40;;;3.15;;
81170;SDS011;70644;44.818;20.478;2023-06-14T07:47:34;5.28;;;3.05;;
81170;SDS011;70644;44.818;20.478;2023-06-14T07:50:00;4.53;;;3.15;;
81170;SDS011;70644;44.818;20.478;2023-06-14T07:52:27;4.38;;;3.38;;
81170;SDS011;70644;44.818;20.478;2023-06-14T07:54:54;5.25;;;4.28;;
81170;SDS011;70644;44.818;20.478;2023-06-14T07:57:20;4.63;;;3.20;;
81170;SDS011;70644;44.818;20.478;2023-06-14T07:59:46;4.80;;;3.40;;
81170;SDS011;70644;44.818;20.478;2023-06-14T08:02:12;6.45;;;3.17;;
81170;SDS011;70644;44.818;20.478;2023-06-14T08:04:38;5.20;;;3.97;;
81170;SDS011;70644;44.818;20.478;2023-06-14T08:07:05;6.55;;;3.42;;
81170;SDS011;70644;44.818;20.478;2023-06-14T08:09:32;5.45;;;3.00;;
81170;SDS011;70644;44.818;20.478;2023-06-14T08:11:58;5.65;;;3.20;;
81170;SDS011;70644;44.818;20.478;2023-06-14T08:14:25;6.15;;;4.55;;
81170;SDS011;70644;44.818;20.478;2023-06-14T08:16:51;5.07;;;3.50;;
81170;SDS011;70644;44.818;20.478;2023-06-14T08:19:17;4.47;;;3.08;;
81170;SDS011;70644;44.818;20.478;2023-06-14T08:21:43;7.70;;;3.50;;
81170;SDS011;70644;44.818;20.478;2023-06-14T08:24:11;4.60;;;3.40;;
81170;SDS011;70644;44.818;20.478;2023-06-14T08:26:37;7.75;;;3.97;;
81170;SDS011;70644;44.818;20.478;2023-06-14T08:29:04;6.32;;;3.40;;
81170;SDS011;70644;44.818;20.478;2023-06-14T08:31:32;7.35;;;3.53;;
81170;SDS011;70644;44.818;20.478;2023-06-14T08:33:58;6.63;;;3.53;;
81170;SDS011;70644;44.818;20.478;2023-06-14T08:36:24;7.03;;;4.07;;
81170;SDS011;70644;44.818;20.478;2023-06-14T08:38:50;7.13;;;3.92;;
81170;SDS011;70644;44.818;20.478;2023-06-14T08:41:20;6.90;;;4.05;;
81170;SDS011;70644;44.818;20.478;2023-06-14T08:43:47;5.72;;;3.92;;
81170;SDS011;70644;44.818;20.478;2023-06-14T08:46:14;6.70;;;4.00;;
81170;SDS011;70644;44.818;20.478;2023-06-14T08:48:45;8.35;;;4.38;;
81170;SDS011;70644;44.818;20.478;2023-06-14T08:51:11;6.32;;;4.18;;
81170;SDS011;70644;44.818;20.478;2023-06-14T08:53:41;8.07;;;5.07;;
81170;SDS011;70644;44.818;20.478;2023-06-14T08:56:08;6.35;;;4.30;;
81170;SDS011;70644;44.818;20.478;2023-06-14T08:58:44;6.50;;;4.10;;
81170;SDS011;70644;44.818;20.478;2023-06-14T09:01:11;6.63;;;4.45;;
81170;SDS011;70644;44.818;20.478;2023-06-14T09:03:40;7.47;;;4.10;;
81170;SDS011;70644;44.818;20.478;2023-06-14T09:06:06;5.97;;;4.32;;
81170;SDS011;70644;44.818;20.478;2023-06-14T09:08:38;5.45;;;3.67;;
81170;SDS011;70644;44.818;20.478;2023-06-14T09:11:05;6.65;;;4.10;;
81170;SDS011;70644;44.818;20.478;2023-06-14T09:13:31;7.15;;;3.60;;
81170;SDS011;70644;44.818;20.478;2023-06-14T09:15:57;6.32;;;3.38;;
81170;SDS011;70644;44.818;20.478;2023-06-14T09:18:33;5.18;;;3.58;;
81170;SDS011;70644;44.818;20.478;2023-06-14T09:20:59;6.75;;;3.45;;
81170;SDS011;70644;44.818;20.478;2023-06-14T09:23:25;6.68;;;3.50;;
81170;SDS011;70644;44.818;20.478;2023-06-14T09:25:51;6.00;;;3.63;;
81170;SDS011;70644;44.818;20.478;2023-06-14T09:28:17;7.53;;;5.38;;
81170;SDS011;70644;44.818;20.478;2023-06-14T09:30:45;10.52;;;4.43;;
81170;SDS011;70644;44.818;20.478;2023-06-14T09:33:16;5.50;;;4.13;;
81170;SDS011;70644;44.818;20.478;2023-06-14T09:35:44;8.05;;;4.68;;
81170;SDS011;70644;44.818;20.478;2023-06-14T09:38:10;4.45;;;3.40;;
81170;SDS011;70644;44.818;20.478;2023-06-14T09:40:36;6.15;;;4.10;;
81170;SDS011;70644;44.818;20.478;2023-06-14T09:43:06;5.55;;;4.20;;
81170;SDS011;70644;44.818;20.478;2023-06-14T09:45:36;6.65;;;4.00;;
81170;SDS011;70644;44.818;20.478;2023-06-14T09:50:30;5.65;;;3.88;;
81170;SDS011;70644;44.818;20.478;2023-06-14T09:52:57;4.40;;;3.65;;
81170;SDS011;70644;44.818;20.478;2023-06-14T09:55:24;9.30;;;4.85;;
81170;SDS011;70644;44.818;20.478;2023-06-14T09:57:52;6.47;;;3.67;;
81170;SDS011;70644;44.818;20.478;2023-06-14T10:00:19;6.82;;;4.82;;
81170;SDS011;70644;44.818;20.478;2023-06-14T10:02:46;8.23;;;3.72;;
81170;SDS011;70644;44.818;20.478;2023-06-14T10:05:15;11.05;;;3.63;;
81170;SDS011;70644;44.818;20.478;2023-06-14T10:07:53;6.35;;;3.80;;
81170;SDS011;70644;44.818;20.478;2023-06-14T10:10:21;5.72;;;3.70;;
81170;SDS011;70644;44.818;20.478;2023-06-14T10:12:48;9.60;;;3.90;;
81170;SDS011;70644;44.818;20.478;2023-06-14T10:15:17;7.95;;;4.60;;
81170;SDS011;70644;44.818;20.478;2023-06-14T10:17:52;8.43;;;4.05;;
81170;SDS011;70644;44.818;20.478;2023-06-14T10:22:50;7.30;;;4.18;;
81170;SDS011;70644;44.818;20.478;2023-06-14T10:25:26;6.63;;;4.03;;
81170;SDS011;70644;44.818;20.478;2023-06-14T10:28:01;5.35;;;4.45;;
81170;SDS011;70644;44.818;20.478;2023-06-14T10:30:27;5.65;;;3.75;;
81170;SDS011;70644;44.818;20.478;2023-06-14T10:35:35;5.80;;;3.88;;
81170;SDS011;70644;44.818;20.478;2023-06-14T10:38:08;6.35;;;4.43;;
81170;SDS011;70644;44.818;20.478;2023-06-14T10:40:34;6.15;;;4.00;;
81170;SDS011;70644;44.818;20.478;2023-06-14T10:43:00;5.82;;;3.75;;
81170;SDS011;70644;44.818;20.478;2023-06-14T10:45:26;6.55;;;4.50;;
81170;SDS011;70644;44.818;20.478;2023-06-14T10:47:52;6.35;;;3.90;;
81170;SDS011;70644;44.818;20.478;2023-06-14T10:50:27;5.40;;;3.70;;
81170;SDS011;70644;44.818;20.478;2023-06-14T10:52:58;6.45;;;4.57;;
81170;SDS011;70644;44.818;20.478;2023-06-14T10:55:24;6.78;;;4.50;;
81170;SDS011;70644;44.818;20.478;2023-06-14T10:57:51;5.07;;;4.00;;
81170;SDS011;70644;44.818;20.478;2023-06-14T11:00:30;5.57;;;4.97;;
81170;SDS011;70644;44.818;20.478;2023-06-14T11:03:18;5.68;;;4.35;;
81170;SDS011;70644;44.818;20.478;2023-06-14T11:05:51;7.72;;;4.40;;
81170;SDS011;70644;44.818;20.478;2023-06-14T11:10:44;6.45;;;5.25;;
81170;SDS011;70644;44.818;20.478;2023-06-14T11:13:10;6.63;;;5.68;;
81170;SDS011;70644;44.818;20.478;2023-06-14T11:15:37;7.25;;;4.38;;
81170;SDS011;70644;44.818;20.478;2023-06-14T11:18:05;9.23;;;5.85;;
81170;SDS011;70644;44.818;20.478;2023-06-14T11:20:33;6.65;;;5.50;;
81170;SDS011;70644;44.818;20.478;2023-06-14T11:23:00;7.32;;;5.97;;
81170;SDS011;70644;44.818;20.478;2023-06-14T11:25:27;7.90;;;5.10;;
81170;SDS011;70644;44.818;20.478;2023-06-14T11:27:53;8.55;;;6.47;;
81170;SDS011;70644;44.818;20.478;2023-06-14T11:30:20;9.35;;;6.20;;
81170;SDS011;70644;44.818;20.478;2023-06-14T11:32:46;6.90;;;6.20;;
81170;SDS011;70644;44.818;20.478;2023-06-14T11:35:13;7.40;;;5.43;;
81170;SDS011;70644;44.818;20.478;2023-06-14T11:37:39;8.18;;;5.13;;
81170;SDS011;70644;44.818;20.478;2023-06-14T11:40:07;7.18;;;4.60;;
81170;SDS011;70644;44.818;20.478;2023-06-14T11:42:37;7.57;;;6.57;;
81170;SDS011;70644;44.818;20.478;2023-06-14T11:45:03;7.32;;;5.78;;
81170;SDS011;70644;44.818;20.478;2023-06-14T11:47:34;9.30;;;7.40;;
81170;SDS011;70644;44.818;20.478;2023-06-14T11:50:00;6.10;;;4.82;;
81170;SDS011;70644;44.818;20.478;2023-06-14T11:52:27;8.52;;;6.40;;
81170;SDS011;70644;44.818;20.478;2023-06-14T11:54:53;7.55;;;6.75;;
81170;SDS011;70644;44.818;20.478;2023-06-14T11:57:20;8.70;;;5.82;;
81170;SDS011;70644;44.818;20.478;2023-06-14T11:59:46;9.30;;;7.38;;
81170;SDS011;70644;44.818;20.478;2023-06-14T12:02:15;7.32;;;6.50;;
81170;SDS011;70644;44.818;20.478;2023-06-14T12:04:42;7.75;;;5.88;;
81170;SDS011;70644;44.818;20.478;2023-06-14T12:07:09;8.25;;;6.80;;
81170;SDS011;70644;44.818;20.478;2023-06-14T12:10:25;8.20;;;4.80;;
81170;SDS011;70644;44.818;20.478;2023-06-14T12:12:27;6.97;;;5.95;;
81170;SDS011;70644;44.818;20.478;2023-06-14T12:14:57;6.43;;;5.40;;
81170;SDS011;70644;44.818;20.478;2023-06-14T12:17:23;7.55;;;5.93;;
81170;SDS011;70644;44.818;20.478;2023-06-14T12:19:50;7.18;;;5.55;;
81170;SDS011;70644;44.818;20.478;2023-06-14T12:22:16;6.72;;;5.75;;
81170;SDS011;70644;44.818;20.478;2023-06-14T12:24:43;6.88;;;5.25;;
81170;SDS011;70644;44.818;20.478;2023-06-14T12:27:09;8.10;;;4.95;;
81170;SDS011;70644;44.818;20.478;2023-06-14T12:29:37;6.45;;;5.85;;
81170;SDS011;70644;44.818;20.478;2023-06-14T12:32:03;7.68;;;5.50;;
81170;SDS011;70644;44.818;20.478;2023-06-14T12:34:29;6.90;;;4.80;;
81170;SDS011;70644;44.818;20.478;2023-06-14T12:36:56;9.80;;;5.70;;
81170;SDS011;70644;44.818;20.478;2023-06-14T12:39:22;5.80;;;4.57;;
81170;SDS011;70644;44.818;20.478;2023-06-14T12:41:49;5.75;;;4.93;;
81170;SDS011;70644;44.818;20.478;2023-06-14T12:44:15;7.80;;;6.40;;
81170;SDS011;70644;44.818;20.478;2023-06-14T12:46:42;7.55;;;5.10;;
81170;SDS011;70644;44.818;20.478;2023-06-14T12:49:09;6.85;;;5.07;;
81170;SDS011;70644;44.818;20.478;2023-06-14T12:51:35;7.50;;;6.28;;
81170;SDS011;70644;44.818;20.478;2023-06-14T12:54:02;6.40;;;5.55;;
81170;SDS011;70644;44.818;20.478;2023-06-14T12:56:28;7.38;;;5.95;;
81170;SDS011;70644;44.818;20.478;2023-06-14T12:58:54;7.05;;;5.57;;
81170;SDS011;70644;44.818;20.478;2023-06-14T13:01:20;9.05;;;6.85;;
81170;SDS011;70644;44.818;20.478;2023-06-14T13:03:47;6.72;;;5.82;;
81170;SDS011;70644;44.818;20.478;2023-06-14T13:06:13;10.85;;;6.85;;
81170;SDS011;70644;44.818;20.478;2023-06-14T13:08:39;8.85;;;6.47;;
81170;SDS011;70644;44.818;20.478;2023-06-14T13:11:05;8.20;;;6.03;;
81170;SDS011;70644;44.818;20.478;2023-06-14T13:13:31;9.82;;;6.15;;
81170;SDS011;70644;44.818;20.478;2023-06-14T13:15:57;7.75;;;5.65;;
81170;SDS011;70644;44.818;20.478;2023-06-14T13:18:23;7.28;;;5.57;;
81170;SDS011;70644;44.818;20.478;2023-06-14T13:20:50;8.82;;;7.03;;
81170;SDS011;70644;44.818;20.478;2023-06-14T13:23:16;10.48;;;6.00;;
81170;SDS011;70644;44.818;20.478;2023-06-14T13:25:42;10.02;;;7.30;;
81170;SDS011;70644;44.818;20.478;2023-06-14T13:28:08;7.85;;;6.72;;
81170;SDS011;70644;44.818;20.478;2023-06-14T13:30:35;8.93;;;6.30;;
81170;SDS011;70644;44.818;20.478;2023-06-14T13:33:01;10.43;;;6.43;;
81170;SDS011;70644;44.818;20.478;2023-06-14T13:35:27;8.88;;;6.20;;
81170;SDS011;70644;44.818;20.478;2023-06-14T13:37:53;9.20;;;7.90;;
81170;SDS011;70644;44.818;20.478;2023-06-14T13:40:19;8.50;;;6.50;;
81170;SDS011;70644;44.818;20.478;2023-06-14T13:42:46;8.93;;;7.22;;
81170;SDS011;70644;44.818;20.478;2023-06-14T13:45:12;10.32;;;8.07;;
81170;SDS011;70644;44.818;20.478;2023-06-14T13:47:38;9.63;;;8.10;;
81170;SDS011;70644;44.818;20.478;2023-06-14T13:50:04;9.00;;;7.53;;
81170;SDS011;70644;44.818;20.478;2023-06-14T13:52:32;9.38;;;6.53;;
81170;SDS011;70644;44.818;20.478;2023-06-14T13:54:58;8.13;;;7.32;;
81170;SDS011;70644;44.818;20.478;2023-06-14T13:57:25;8.80;;;6.85;;
81170;SDS011;70644;44.818;20.478;2023-06-14T13:59:51;10.35;;;7.32;;
81170;SDS011;70644;44.818;20.478;2023-06-14T14:02:20;11.65;;;7.82;;
81170;SDS011;70644;44.818;20.478;2023-06-14T14:04:46;9.10;;;6.32;;
81170;SDS011;70644;44.818;20.478;2023-06-14T14:07:18;9.57;;;7.32;;
81170;SDS011;70644;44.818;20.478;2023-06-14T14:09:45;9.18;;;6.35;;
81170;SDS011;70644;44.818;20.478;2023-06-14T14:12:12;10.52;;;8.07;;
81170;SDS011;70644;44.818;20.478;2023-06-14T14:14:39;7.72;;;6.13;;
81170;SDS011;70644;44.818;20.478;2023-06-14T14:17:05;8.75;;;7.60;;
81170;SDS011;70644;44.818;20.478;2023-06-14T14:19:32;8.88;;;7.07;;
81170;SDS011;70644;44.818;20.478;2023-06-14T14:21:58;10.02;;;6.45;;
81170;SDS011;70644;44.818;20.478;2023-06-14T14:24:24;8.98;;;6.32;;
81170;SDS011;70644;44.818;20.478;2023-06-14T14:26:51;11.27;;;7.85;;
81170;SDS011;70644;44.818;20.478;2023-06-14T14:29:19;8.82;;;7.35;;
81170;SDS011;70644;44.818;20.478;2023-06-14T14:31:45;9.82;;;6.18;;
81170;SDS011;70644;44.818;20.478;2023-06-14T14:34:11;9.20;;;7.20;;
81170;SDS011;70644;44.818;20.478;2023-06-14T14:36:37;9.05;;;7.45;;
81170;SDS011;70644;44.818;20.478;2023-06-14T14:39:07;11.02;;;9.30;;
81170;SDS011;70644;44.818;20.478;2023-06-14T14:41:33;10.60;;;8.25;;
81170;SDS011;70644;44.818;20.478;2023-06-14T14:43:59;9.07;;;8.18;;
81170;SDS011;70644;44.818;20.478;2023-06-14T14:46:26;8.32;;;7.22;;
81170;SDS011;70644;44.818;20.478;2023-06-14T14:48:53;8.82;;;6.70;;